Clements, California
Current Conditions -  °F | °C
As of 7:55 AM on Sunday 23 Nov 2014 (Local Time) from KSCK Reporting Station
Clear Clear  
Wind Chill: 43°   Ceiling: Unl
Heat Index: 48°   Visibility: 10mi
Dew Point: 44°   Wind: 10mph
Humidity: 86%   Direction: 310°NW
Pressure: 30.29"   Gusts: NA
Location:  38.19°N, 121.09°W
Report Text: KSCK 231555Z 31009KT 10SM CLR 09/07 A3029 RMK AO2 SLP258 T00890067 $
Loading
Personal Weather Stations






























Interactive Weather Map New forecast layout! Learn more

10-Day Weather Forecast

Advertisements
Track Severe Weather on mobile